Time;durP1;ratioP1;P1;durP2;ratioP2;P2;SDS_P1;SDS_P2;PMS_P1;PMS_P2;Temp;Humidity;BMP_temperature;BMP_pressure;BME280_temperature;BME280_humidity;BME280_pressure;Samples;Min_cycle;Max_cycle;Signal;HPM_P1;HPM_P2
2021/09/29 02:46:19;;;;;;;7.80;3.72;;;20.60;99.90;;;;;;5003242;22;20586;-83
2021/09/29 02:48:45;;;;;;;6.85;4.30;;;20.70;99.90;;;;;;5016128;28;20042;-83
2021/09/29 02:51:10;;;;;;;5.55;4.07;;;20.70;99.90;;;;;;4998491;28;20038;-82
2021/09/29 02:53:36;;;;;;;5.15;4.40;;;20.60;99.90;;;;;;5015434;28;20048;-84
2021/09/29 02:56:04;;;;;;;5.35;4.13;;;20.70;99.90;;;;;;5016119;28;20049;-84
2021/09/29 02:58:30;;;;;;;8.07;4.18;;;20.70;99.90;;;;;;5014780;28;20148;-83
2021/09/29 03:01:01;;;;;;;5.60;4.57;;;20.70;99.90;;;;;;5016023;28;20109;-81
2021/09/29 03:03:27;;;;;;;6.25;4.05;;;20.60;99.90;;;;;;5015762;28;20113;-81
2021/09/29 03:05:53;;;;;;;6.28;4.40;;;20.60;99.90;;;;;;5015581;28;20022;-81
2021/09/29 03:08:19;;;;;;;7.05;4.13;;;20.60;99.90;;;;;;5015475;28;20026;-81
2021/09/29 03:10:45;;;;;;;5.65;4.32;;;20.50;99.90;;;;;;5015855;28;20028;-84
2021/09/29 03:13:12;;;;;;;5.60;3.60;;;20.40;99.90;;;;;;4997692;28;20042;-83
2021/09/29 03:15:38;;;;;;;9.02;4.78;;;20.50;99.90;;;;;;4998205;28;20117;-82
2021/09/29 03:18:04;;;;;;;9.23;4.80;;;20.40;99.90;;;;;;5015380;28;20443;-83
2021/09/29 03:20:31;;;;;;;9.02;4.18;;;20.40;99.90;;;;;;5015375;28;20030;-83
2021/09/29 03:22:57;;;;;;;4.80;4.13;;;20.40;99.90;;;;;;5015457;28;20040;-85
2021/09/29 03:25:25;;;;;;;10.40;4.63;;;20.50;99.90;;;;;;5015331;28;20480;-83
2021/09/29 03:27:51;;;;;;;6.07;4.50;;;20.40;99.90;;;;;;4997455;28;20034;-82
2021/09/29 03:30:17;;;;;;;5.43;4.40;;;20.50;99.90;;;;;;5014980;28;20383;-83
2021/09/29 03:32:43;;;;;;;6.32;4.40;;;20.60;99.90;;;;;;5015177;28;20042;-81
2021/09/29 03:35:10;;;;;;;6.60;4.45;;;20.70;99.90;;;;;;5015100;28;20026;-82
2021/09/29 03:37:36;;;;;;;6.93;4.97;;;20.80;99.90;;;;;;5015267;28;20026;-83
2021/09/29 03:40:04;;;;;;;7.82;4.07;;;20.80;99.90;;;;;;5015243;28;20053;-82
2021/09/29 03:42:30;;;;;;;9.27;4.10;;;20.80;99.90;;;;;;4997003;28;20030;-82
2021/09/29 03:44:55;;;;;;;7.38;3.95;;;20.80;99.90;;;;;;5015028;28;20495;-85
2021/09/29 03:47:21;;;;;;;6.72;4.40;;;20.70;99.90;;;;;;4997936;28;20535;-85
2021/09/29 03:49:47;;;;;;;6.03;4.43;;;20.70;99.90;;;;;;4996845;28;20445;-87
2021/09/29 03:52:12;;;;;;;8.23;4.63;;;20.60;99.90;;;;;;4997122;28;20045;-83
2021/09/29 03:54:38;;;;;;;6.15;4.88;;;20.60;99.90;;;;;;5014791;28;20057;-85
2021/09/29 03:57:04;;;;;;;6.03;4.15;;;20.60;99.90;;;;;;5014726;28;20091;-84
2021/09/29 03:59:31;;;;;;;8.32;4.80;;;20.60;99.90;;;;;;5014671;28;20124;-83
2021/09/29 04:01:56;;;;;;;5.82;4.45;;;20.60;99.90;;;;;;4997095;28;20045;-83
2021/09/29 04:04:22;;;;;;;8.18;4.60;;;20.60;99.90;;;;;;5014632;28;20034;-85
2021/09/29 04:06:47;;;;;;;4.97;4.47;;;20.60;99.90;;;;;;5014503;28;20038;-83
2021/09/29 04:09:13;;;;;;;9.45;4.72;;;20.70;99.90;;;;;;4996729;28;20093;-85
2021/09/29 04:11:39;;;;;;;7.57;5.38;;;20.70;99.90;;;;;;4996878;28;20480;-84
2021/09/29 04:14:06;;;;;;;8.27;5.13;;;20.80;99.90;;;;;;4996735;28;20038;-84
2021/09/29 04:16:32;;;;;;;10.27;4.85;;;20.70;99.90;;;;;;5014447;28;20029;-85
2021/09/29 04:18:58;;;;;;;6.07;4.50;;;20.70;99.90;;;;;;5014364;28;20030;-83
2021/09/29 04:21:24;;;;;;;9.10;4.78;;;20.60;99.90;;;;;;4996587;28;20036;-84
2021/09/29 04:23:50;;;;;;;7.60;5.30;;;20.60;99.90;;;;;;4997033;28;20034;-85
2021/09/29 04:26:16;;;;;;;6.72;5.13;;;20.70;99.90;;;;;;4996374;28;20061;-84
2021/09/29 04:28:42;;;;;;;9.13;4.93;;;20.70;99.90;;;;;;4996483;28;20044;-85
2021/09/29 04:31:08;;;;;;;7.75;5.20;;;20.70;99.90;;;;;;4997034;28;20034;-85
2021/09/29 04:33:34;;;;;;;16.92;5.15;;;20.70;99.90;;;;;;4996307;28;20049;-85
2021/09/29 04:36:00;;;;;;;8.95;4.97;;;20.70;99.90;;;;;;5013910;28;20109;-85
2021/09/29 04:38:26;;;;;;;8.80;4.85;;;20.70;99.90;;;;;;5014223;28;20109;-85
2021/09/29 04:40:52;;;;;;;6.60;4.65;;;20.70;99.90;;;;;;4997219;28;20491;-85
2021/09/29 04:43:18;;;;;;;6.50;4.90;;;20.70;99.90;;;;;;5014100;28;20041;-86
2021/09/29 04:45:43;;;;;;;6.80;4.80;;;20.70;99.90;;;;;;5013746;28;20049;-85
2021/09/29 04:48:09;;;;;;;10.75;5.00;;;20.60;99.90;;;;;;4996344;28;20033;-86
2021/09/29 04:50:35;;;;;;;10.23;5.13;;;20.60;99.90;;;;;;4996263;28;20033;-84
2021/09/29 04:53:01;;;;;;;6.38;5.28;;;20.60;99.90;;;;;;5013620;28;20045;-81
2021/09/29 04:55:30;;;;;;;7.00;4.30;;;20.60;99.90;;;;;;5013861;28;20034;-81
2021/09/29 04:57:56;;;;;;;10.63;5.43;;;20.60;99.90;;;;;;5013569;28;20029;-81
2021/09/29 05:00:21;;;;;;;6.90;5.70;;;20.60;99.90;;;;;;5013668;28;20053;-81
2021/09/29 05:02:49;;;;;;;8.27;4.40;;;20.60;99.90;;;;;;5012738;28;20037;-81
2021/09/29 05:05:15;;;;;;;8.02;5.10;;;20.60;99.90;;;;;;5013851;28;20041;-81
2021/09/29 05:07:45;;;;;;;10.93;5.25;;;20.60;99.90;;;;;;4996021;28;20503;-80
2021/09/29 05:10:16;;;;;;;6.28;5.32;;;20.60;99.90;;;;;;5013776;28;20030;-80
2021/09/29 05:12:45;;;;;;;9.27;5.50;;;20.60;99.90;;;;;;4995813;28;20049;-82
2021/09/29 05:15:11;;;;;;;9.98;5.28;;;20.60;99.90;;;;;;5013455;28;20041;-81
2021/09/29 05:17:36;;;;;;;9.00;5.13;;;20.60;99.90;;;;;;5013419;28;20034;-80
2021/09/29 05:20:03;;;;;;;7.30;5.00;;;20.50;99.90;;;;;;5013513;28;20091;-85
2021/09/29 05:22:29;;;;;;;7.47;4.80;;;20.60;99.90;;;;;;5013356;28;20095;-81
2021/09/29 05:24:55;;;;;;;6.60;5.18;;;20.60;99.90;;;;;;5013568;28;20033;-86
2021/09/29 05:27:20;;;;;;;7.15;5.43;;;20.60;99.90;;;;;;5013689;28;20030;-87
2021/09/29 05:29:48;;;;;;;7.30;5.15;;;20.60;99.90;;;;;;5013311;28;20080;-86
2021/09/29 05:32:14;;;;;;;8.07;5.68;;;20.60;99.90;;;;;;5013075;28;20415;-85
2021/09/29 05:34:40;;;;;;;11.82;5.50;;;20.60;99.90;;;;;;5013551;28;20025;-82
2021/09/29 05:37:05;;;;;;;14.07;5.78;;;20.60;99.90;;;;;;5013545;28;20062;-85
2021/09/29 05:39:31;;;;;;;9.02;5.55;;;20.60;99.90;;;;;;5013134;28;20057;-85
2021/09/29 05:41:57;;;;;;;9.48;5.20;;;20.60;99.90;;;;;;5012900;28;20049;-85
2021/09/29 05:44:22;;;;;;;7.60;4.85;;;20.80;99.90;;;;;;5013677;28;20034;-84
2021/09/29 05:46:48;;;;;;;7.63;5.20;;;21.10;99.90;;;;;;5013109;28;20045;-84
2021/09/29 05:49:14;;;;;;;8.77;4.95;;;21.30;99.90;;;;;;5012909;28;20535;-84
2021/09/29 05:51:44;;;;;;;8.18;5.10;;;21.60;99.90;;;;;;5013178;28;20100;-84
2021/09/29 05:54:10;;;;;;;6.82;4.70;;;21.80;99.90;;;;;;5013001;28;20441;-84
2021/09/29 05:56:36;;;;;;;11.93;4.65;;;22.20;99.90;;;;;;5012965;28;20105;-84
2021/09/29 05:59:02;;;;;;;12.15;5.05;;;22.20;99.90;;;;;;5013001;28;20026;-86
2021/09/29 06:01:27;;;;;;;6.82;4.80;;;22.00;99.90;;;;;;5012881;28;20038;-85
2021/09/29 06:03:53;;;;;;;7.70;5.18;;;21.80;99.90;;;;;;5013084;28;20066;-84
2021/09/29 06:06:18;;;;;;;10.50;5.10;;;21.60;99.90;;;;;;5012778;28;20030;-82
2021/09/29 06:08:44;;;;;;;8.10;5.50;;;21.40;99.90;;;;;;5012952;28;20120;-86
2021/09/29 06:11:10;;;;;;;9.70;5.40;;;21.30;99.90;;;;;;5012731;28;20116;-86
2021/09/29 06:13:35;;;;;;;7.20;5.15;;;21.20;99.90;;;;;;5014302;28;20042;-82
2021/09/29 06:16:06;;;;;;;7.50;5.43;;;21.20;99.90;;;;;;5016579;28;20040;-81
2021/09/29 06:18:34;;;;;;;37.53;5.13;;;21.20;99.90;;;;;;5016442;28;20034;-80
2021/09/29 06:21:01;;;;;;;11.60;5.00;;;21.20;99.90;;;;;;5016360;28;20029;-81
2021/09/29 06:23:27;;;;;;;5.82;4.85;;;21.30;99.90;;;;;;5016379;28;20045;-80
2021/09/29 06:25:53;;;;;;;7.75;5.40;;;21.40;99.90;;;;;;5016322;28;20033;-84
2021/09/29 06:28:18;;;;;;;5.57;4.97;;;21.50;99.90;;;;;;5016280;28;20117;-81
2021/09/29 06:30:44;;;;;;;8.43;4.80;;;21.60;99.90;;;;;;5016057;28;20104;-82
2021/09/29 06:33:11;;;;;;;7.50;5.40;;;21.80;99.90;;;;;;5016016;28;20053;-83
2021/09/29 06:35:37;;;;;;;9.05;5.28;;;22.00;99.90;;;;;;5016081;28;20080;-83
2021/09/29 06:38:05;;;;;;;9.32;4.93;;;22.20;99.90;;;;;;5016414;28;20030;-82
2021/09/29 06:40:31;;;;;;;9.90;5.20;;;22.40;99.90;;;;;;5016494;28;20058;-83
2021/09/29 06:42:58;;;;;;;9.75;5.07;;;22.90;99.90;;;;;;5015891;28;20100;-83
2021/09/29 06:45:23;;;;;;;6.00;4.55;;;23.30;99.90;;;;;;5015839;28;20136;-83
2021/09/29 06:47:50;;;;;;;5.63;4.70;;;23.50;99.90;;;;;;5015992;28;20030;-82
2021/09/29 06:50:18;;;;;;;9.55;5.03;;;23.50;99.90;;;;;;5016210;28;20056;-83
2021/09/29 06:52:43;;;;;;;10.40;4.38;;;23.50;99.90;;;;;;5015929;28;20046;-83
2021/09/29 06:55:10;;;;;;;17.92;5.00;;;23.50;99.90;;;;;;5015822;28;20149;-82
2021/09/29 06:57:36;;;;;;;7.63;4.80;;;23.50;99.90;;;;;;5015809;28;20026;-82
2021/09/29 07:00:05;;;;;;;6.88;4.82;;;23.60;99.90;;;;;;5015940;28;20041;-84
2021/09/29 07:02:32;;;;;;;8.27;5.10;;;23.50;99.90;;;;;;5015616;28;20030;-82
2021/09/29 07:04:58;;;;;;;10.77;4.43;;;23.50;99.90;;;;;;5016032;28;20030;-81
2021/09/29 07:07:23;;;;;;;7.05;4.35;;;23.70;99.90;;;;;;4997888;28;20124;-82
2021/09/29 07:09:50;;;;;;;12.20;4.38;;;23.90;99.90;;;;;;5015797;28;20476;-82
2021/09/29 07:12:15;;;;;;;8.70;4.60;;;23.90;99.90;;;;;;5015594;28;20387;-82
2021/09/29 07:14:41;;;;;;;8.50;4.55;;;23.90;99.90;;;;;;5016085;28;20042;-82
2021/09/29 07:17:07;;;;;;;26.27;5.20;;;23.90;99.90;;;;;;5016676;28;20030;-88
2021/09/29 07:19:32;;;;;;;7.88;4.43;;;24.00;99.90;;;;;;5015660;28;20113;-82
2021/09/29 07:21:58;;;;;;;16.25;5.50;;;24.10;99.90;;;;;;5015540;28;20025;-82
2021/09/29 07:24:24;;;;;;;12.45;4.75;;;24.40;99.90;;;;;;5014999;28;20034;-83
2021/09/29 07:26:50;;;;;;;12.48;4.93;;;24.80;99.90;;;;;;5015196;28;20130;-84
2021/09/29 07:29:16;;;;;;;10.27;4.47;;;25.00;99.90;;;;;;5015281;28;20101;-83
2021/09/29 07:31:41;;;;;;;12.40;4.90;;;25.10;99.90;;;;;;4997403;28;20034;-84
2021/09/29 07:34:08;;;;;;;5.88;4.30;;;25.20;99.90;;;;;;5015323;28;20105;-86
2021/09/29 07:36:35;;;;;;;5.90;4.15;;;25.50;99.90;;;;;;5015480;28;20460;-81
2021/09/29 07:39:02;;;;;;;12.20;4.60;;;25.90;99.90;;;;;;4997771;28;20510;-79
2021/09/29 07:41:28;;;;;;;11.50;4.63;;;26.50;99.90;;;;;;4997137;28;20440;-84
2021/09/29 07:43:54;;;;;;;7.32;4.30;;;27.30;99.90;;;;;;5014947;28;20041;-83
2021/09/29 07:46:19;;;;;;;6.43;4.15;;;27.70;99.90;;;;;;5014767;28;20042;-79
2021/09/29 07:48:46;;;;;;;8.93;4.95;;;27.70;99.90;;;;;;5014615;28;20113;-83
2021/09/29 07:51:13;;;;;;;6.40;4.60;;;27.60;99.90;;;;;;5014988;28;20036;-82
2021/09/29 07:53:41;;;;;;;17.65;4.05;;;27.60;99.90;;;;;;5014658;28;20096;-88
2021/09/29 07:56:07;;;;;;;13.13;4.82;;;27.80;99.90;;;;;;5015821;28;20034;-83
2021/09/29 07:58:33;;;;;;;8.57;4.50;;;27.90;99.90;;;;;;5014929;28;20041;-81
2021/09/29 08:01:00;;;;;;;4.57;3.83;;;28.10;99.90;;;;;;5014501;28;20389;-81
2021/09/29 08:03:26;;;;;;;5.50;3.85;;;28.50;99.90;;;;;;5014622;28;20141;-82
2021/09/29 08:05:53;;;;;;;9.48;3.83;;;28.70;99.90;;;;;;5014886;28;20026;-82
2021/09/29 08:08:19;;;;;;;5.32;3.88;;;28.70;99.90;;;;;;5014621;28;20032;-82
2021/09/29 08:10:45;;;;;;;4.72;3.92;;;28.80;99.90;;;;;;5013766;28;20034;-81
2021/09/29 08:13:11;;;;;;;5.68;3.85;;;29.00;99.90;;;;;;5013688;28;20042;-79
2021/09/29 08:15:36;;;;;;;9.30;3.75;;;29.00;99.90;;;;;;5013449;28;20038;-79
2021/09/29 08:18:02;;;;;;;5.15;3.95;;;29.20;99.90;;;;;;5013720;28;20030;-79
2021/09/29 08:20:32;;;;;;;5.25;3.70;;;29.80;99.90;;;;;;5014015;28;20026;-79
2021/09/29 08:23:12;;;;;;;8.57;3.83;;;30.30;99.90;;;;;;5012932;28;20045;-80
2021/09/29 08:36:27;;;;;;;5.80;3.33;;;32.30;98.30;;;;;;5012825;28;20125;-81
2021/09/29 08:44:25;;;;;;;14.75;3.33;;;32.30;96.50;;;;;;5013005;28;20049;-77
2021/09/29 08:47:10;;;;;;;3.47;2.90;;;32.00;97.10;;;;;;5012447;28;20054;-77
2021/09/29 08:55:38;;;;;;;6.80;3.17;;;32.00;96.10;;;;;;5012902;28;20033;-80
2021/09/29 09:17:30;;;;;;;12.32;5.20;;;32.40;94.30;;;;;;5012599;28;20042;-78
2021/09/29 09:20:10;;;;;;;9.82;4.00;;;32.20;94.00;;;;;;5012245;28;20038;-78
2021/09/29 09:22:36;;;;;;;7.45;4.10;;;32.10;93.90;;;;;;5012588;28;20030;-78
2021/09/29 09:25:04;;;;;;;7.05;4.13;;;32.10;93.70;;;;;;5012081;28;20060;-77
2021/09/29 09:27:46;;;;;;;13.25;4.50;;;31.90;93.50;;;;;;5012379;28;20034;-77
2021/09/29 09:30:26;;;;;;;11.45;5.03;;;31.70;94.30;;;;;;5012353;28;20041;-78
2021/09/29 09:32:55;;;;;;;14.07;4.75;;;31.80;95.40;;;;;;5012193;28;20128;-77
2021/09/29 09:35:22;;;;;;;9.90;4.75;;;31.70;96.00;;;;;;5012313;28;20217;-79
2021/09/29 09:37:55;;;;;;;14.98;4.72;;;31.80;95.80;;;;;;5012273;28;20029;-79
2021/09/29 09:40:21;;;;;;;17.83;5.10;;;32.00;95.60;;;;;;5012538;28;20030;-79
2021/09/29 09:42:51;;;;;;;15.10;4.82;;;31.90;95.70;;;;;;5012121;28;20026;-78
2021/09/29 09:45:27;;;;;;;26.20;5.55;;;31.90;97.40;;;;;;5011826;28;20040;-79
2021/09/29 09:47:53;;;;;;;11.38;4.88;;;31.90;98.80;;;;;;5013057;28;20492;-80
2021/09/29 09:50:27;;;;;;;15.75;4.90;;;31.80;98.60;;;;;;5016380;28;20070;-80
2021/09/29 09:52:53;;;;;;;13.25;4.85;;;31.80;98.20;;;;;;5017685;28;20555;-80
2021/09/29 09:55:22;;;;;;;10.57;5.15;;;31.80;98.30;;;;;;5015717;28;20062;-80
2021/09/29 09:57:54;;;;;;;34.05;5.82;;;31.70;98.10;;;;;;5014837;28;20066;-80
2021/09/29 10:00:28;;;;;;;25.75;5.93;;;31.60;98.10;;;;;;5015104;28;20124;-78
2021/09/29 10:02:55;;;;;;;14.38;5.47;;;31.60;98.60;;;;;;5015429;28;20061;-80
2021/09/29 10:05:23;;;;;;;21.33;4.93;;;31.40;98.20;;;;;;5015971;28;20034;-79
2021/09/29 10:07:50;;;;;;;16.48;4.82;;;31.30;98.70;;;;;;5015616;28;20069;-79
2021/09/29 10:10:26;;;;;;;14.73;4.88;;;31.20;98.60;;;;;;5015282;28;20457;-79
2021/09/29 10:27:16;;;;;;;10.18;4.75;;;30.10;99.90;;;;;;5015208;28;20034;-78
2021/09/29 10:29:48;;;;;;;12.43;5.80;;;30.20;99.90;;;;;;5015119;28;20439;-79
2021/09/29 10:34:54;;;;;;;10.25;4.95;;;30.50;99.90;;;;;;5014318;28;20080;-79
2021/09/29 11:04:32;;;;;;;9.88;5.28;;;30.20;99.90;;;;;;5015827;28;20111;-77
2021/09/29 11:09:55;;;;;;;9.40;5.00;;;30.10;99.90;;;;;;5015645;28;20045;-78
2021/09/29 11:31:31;;;;;;;13.85;10.63;;;29.00;99.90;;;;;;5015076;28;20154;-78
2021/09/29 12:07:58;;;;;;;19.00;5.20;;;28.60;99.90;;;;;;5014830;28;20089;-81
2021/09/29 12:12:17;;;;;;;6.90;4.95;;;28.50;99.90;;;;;;5014242;28;20070;-80
2021/09/29 12:14:55;;;;;;;7.85;4.47;;;28.50;99.90;;;;;;5014151;28;20088;-80
2021/09/29 12:17:26;;;;;;;7.38;5.15;;;28.50;99.90;;;;;;5014264;28;20026;-79
2021/09/29 12:19:55;;;;;;;14.15;5.55;;;28.50;99.90;;;;;;5014484;28;20034;-81
2021/09/29 12:22:23;;;;;;;8.13;4.90;;;28.30;99.90;;;;;;4996851;28;20038;-80
2021/09/29 12:27:35;;;;;;;9.15;4.93;;;27.90;99.90;;;;;;5014575;28;20104;-79
2021/09/29 12:30:34;;;;;;;10.93;5.40;;;27.80;99.90;;;;;;5013966;28;20037;-80
2021/09/29 12:35:56;;;;;;;12.00;5.80;;;27.60;99.90;;;;;;5013847;28;20464;-80
2021/09/29 12:38:35;;;;;;;12.55;6.15;;;27.60;99.90;;;;;;5014145;28;20424;-80
2021/09/29 12:41:00;;;;;;;11.27;6.70;;;27.60;99.90;;;;;;5014006;28;20030;-78
2021/09/29 12:43:27;;;;;;;10.65;6.25;;;27.50;99.90;;;;;;5013775;28;20040;-80
2021/09/29 12:45:53;;;;;;;9.43;6.57;;;27.40;99.90;;;;;;5013279;28;20034;-79
2021/09/29 12:48:25;;;;;;;14.32;6.82;;;27.30;99.90;;;;;;5012895;28;20116;-78
2021/09/29 12:53:33;;;;;;;15.60;6.80;;;27.30;99.90;;;;;;5012896;28;20445;-79
2021/09/29 12:58:29;;;;;;;20.35;6.60;;;27.30;99.90;;;;;;5013395;28;20436;-79
2021/09/29 13:00:56;;;;;;;14.18;6.78;;;27.30;99.90;;;;;;5013351;28;20399;-78
2021/09/29 13:03:22;;;;;;;21.67;7.40;;;27.30;99.90;;;;;;5012629;28;20100;-78
2021/09/29 13:05:48;;;;;;;10.48;7.03;;;27.20;99.90;;;;;;5013220;28;20022;-78
2021/09/29 13:08:15;;;;;;;13.93;7.10;;;26.90;99.90;;;;;;5013624;28;20057;-78
2021/09/29 13:10:41;;;;;;;10.90;7.63;;;26.90;99.90;;;;;;5012637;28;20034;-78
2021/09/29 13:13:08;;;;;;;15.98;7.32;;;27.00;99.90;;;;;;5012125;28;20408;-80
2021/09/29 13:15:39;;;;;;;9.65;6.72;;;27.00;99.90;;;;;;5012346;28;20041;-79
2021/09/29 13:18:05;;;;;;;12.75;7.80;;;26.90;99.90;;;;;;4994751;28;20602;-79
2021/09/29 13:20:31;;;;;;;16.05;6.78;;;26.80;99.90;;;;;;5012543;28;20038;-79
2021/09/29 13:23:05;;;;;;;7.75;6.00;;;26.80;99.90;;;;;;5011708;28;20034;-81
2021/09/29 13:36:38;;;;;;;8.18;6.00;;;26.70;99.90;;;;;;5012993;28;20041;-80
2021/09/29 13:39:12;;;;;;;7.30;6.18;;;26.70;99.90;;;;;;5012907;28;20121;-78
2021/09/29 13:41:40;;;;;;;15.40;6.85;;;26.70;99.90;;;;;;5013231;28;20086;-77
2021/09/29 13:44:06;;;;;;;20.90;6.85;;;26.70;99.90;;;;;;5013026;28;20396;-80
2021/09/29 13:46:32;;;;;;;7.93;5.97;;;26.60;99.90;;;;;;5012812;28;20169;-80
2021/09/29 13:49:00;;;;;;;16.40;6.30;;;26.50;99.90;;;;;;5012962;28;20500;-79
2021/09/29 13:51:27;;;;;;;7.80;5.88;;;26.50;99.90;;;;;;5012792;28;20513;-78
2021/09/29 13:53:54;;;;;;;11.63;6.15;;;26.60;99.90;;;;;;5012312;28;20048;-79
2021/09/29 13:56:21;;;;;;;12.25;6.50;;;26.70;99.90;;;;;;5013024;28;20173;-79
2021/09/29 14:14:59;;;;;;;16.25;7.45;;;26.30;99.90;;;;;;5012696;28;20064;-76
2021/09/29 14:28:35;;;;;;;9.38;6.15;;;26.30;99.90;;;;;;5012901;28;20130;-81
2021/09/29 14:29:04;;;;;;;13.23;6.10;;;26.20;99.90;;;;;;5011654;28;20041;-81
2021/09/29 14:31:42;;;;;;;18.25;5.90;;;26.10;99.90;;;;;;5011791;28;20396;-84
2021/09/29 14:34:08;;;;;;;11.38;5.70;;;26.10;99.90;;;;;;5012441;28;20096;-83
2021/09/29 14:36:34;;;;;;;7.97;6.63;;;26.10;99.90;;;;;;5016112;28;20030;-82
2021/09/29 14:39:00;;;;;;;8.45;5.80;;;26.10;99.90;;;;;;5015455;28;20041;-86
2021/09/29 14:41:26;;;;;;;16.30;6.70;;;26.10;99.90;;;;;;5015998;28;20029;-82
2021/09/29 14:43:51;;;;;;;8.68;6.30;;;26.10;99.90;;;;;;5015887;28;20026;-83
2021/09/29 14:46:17;;;;;;;12.80;6.15;;;26.10;99.90;;;;;;5015792;28;20396;-81
2021/09/29 14:48:43;;;;;;;23.98;7.45;;;26.10;99.90;;;;;;5015730;28;20026;-81
2021/09/29 14:51:10;;;;;;;11.05;5.68;;;26.10;99.90;;;;;;5015255;28;20475;-82
2021/09/29 14:53:37;;;;;;;16.88;7.10;;;26.20;99.90;;;;;;5014871;28;20045;-84
2021/09/29 14:56:05;;;;;;;14.05;6.90;;;26.20;99.90;;;;;;5015706;28;20037;-81
2021/09/29 14:58:31;;;;;;;18.63;7.47;;;26.20;99.90;;;;;;5016059;28;20108;-80
2021/09/29 15:00:57;;;;;;;25.95;7.35;;;26.20;99.90;;;;;;5014937;28;20030;-81
2021/09/29 15:03:23;;;;;;;43.60;8.05;;;26.20;99.90;;;;;;5014660;28;20124;-79
2021/09/29 15:05:50;;;;;;;50.65;8.48;;;26.20;99.90;;;;;;5015369;28;20498;-80
2021/09/29 15:08:17;;;;;;;52.05;8.73;;;26.20;99.90;;;;;;5014629;28;20034;-78
2021/09/29 15:10:43;;;;;;;42.33;9.68;;;26.20;99.90;;;;;;4996671;28;20042;-80
2021/09/29 15:13:11;;;;;;;46.25;7.72;;;26.20;99.90;;;;;;4996601;28;20048;-79
2021/09/29 15:15:46;;;;;;;30.67;8.02;;;26.20;99.90;;;;;;5014071;28;20034;-81
2021/09/29 15:18:16;;;;;;;21.63;6.30;;;26.10;99.90;;;;;;5014183;28;20033;-82
2021/09/29 15:21:36;;;;;;;21.80;6.72;;;26.10;99.90;;;;;;5014243;28;20022;-86
2021/09/29 15:31:50;;;;;;;23.00;6.50;;;25.90;99.90;;;;;;5018573;28;20564;-81
2021/09/29 15:58:03;;;;;;;25.40;5.25;;;25.30;99.90;;;;;;5014917;28;20135;-82
2021/09/29 16:08:44;;;;;;;23.30;5.82;;;25.00;99.90;;;;;;5014653;28;20080;-83
2021/09/29 16:14:06;;;;;;;21.63;5.57;;;24.90;99.90;;;;;;5014493;28;20044;-81
2021/09/29 16:35:11;;;;;;;39.53;7.68;;;24.20;99.90;;;;;;5014104;28;20034;-87
2021/09/29 16:37:37;;;;;;;23.83;6.60;;;24.10;99.90;;;;;;5015919;28;20443;-84
2021/09/29 16:40:04;;;;;;;30.50;7.03;;;24.10;99.90;;;;;;5013995;28;20030;-77
2021/09/29 16:42:29;;;;;;;28.50;7.18;;;24.00;99.90;;;;;;5013350;28;20480;-79
2021/09/29 16:45:02;;;;;;;34.35;6.82;;;24.00;99.90;;;;;;5013912;28;20105;-78
2021/09/29 16:47:29;;;;;;;26.45;6.93;;;23.90;99.90;;;;;;5014288;28;20113;-82
2021/09/29 16:49:56;;;;;;;23.95;7.28;;;23.90;99.90;;;;;;5015929;28;20022;-80
2021/09/29 16:54:47;;;;;;;26.98;7.68;;;23.80;99.90;;;;;;5013748;28;20340;-79
2021/09/29 16:57:17;;;;;;;20.33;8.07;;;23.70;99.90;;;;;;5012772;28;20038;-81
2021/09/29 17:00:06;;;;;;;20.75;7.72;;;23.70;99.90;;;;;;5013459;28;20029;-84
2021/09/29 17:02:32;;;;;;;31.58;8.10;;;23.60;99.90;;;;;;5013409;28;20385;-85
2021/09/29 17:04:57;;;;;;;29.15;8.30;;;23.60;99.90;;;;;;5013710;28;20041;-84
2021/09/29 17:07:24;;;;;;;26.27;8.38;;;23.60;99.90;;;;;;5013274;28;20037;-83
2021/09/29 17:09:50;;;;;;;28.67;8.80;;;23.60;99.90;;;;;;5013427;28;20033;-84
2021/09/29 17:12:16;;;;;;;30.70;8.52;;;23.60;99.90;;;;;;4995840;28;20132;-86
2021/09/29 17:14:43;;;;;;;28.05;8.38;;;23.50;99.90;;;;;;5013281;28;20038;-83
2021/09/29 17:17:09;;;;;;;26.75;9.25;;;23.50;99.90;;;;;;5013147;28;20524;-80
2021/09/29 17:19:35;;;;;;;46.50;11.30;;;23.40;99.90;;;;;;5013445;28;20062;-82
2021/09/29 17:22:03;;;;;;;37.08;10.52;;;23.40;99.90;;;;;;5012809;28;20033;-82
2021/09/29 17:24:31;;;;;;;16.35;9.77;;;23.40;99.90;;;;;;5013429;28;20053;-81
2021/09/29 17:26:58;;;;;;;33.08;10.57;;;23.30;99.90;;;;;;5016711;28;20527;-81
2021/09/29 17:29:25;;;;;;;25.30;9.65;;;23.30;99.90;;;;;;5016973;28;20029;-82
2021/09/29 17:32:06;;;;;;;22.00;8.63;;;23.30;99.90;;;;;;5013128;28;20036;-78
2021/09/29 17:34:49;;;;;;;36.90;9.75;;;23.30;99.90;;;;;;5013414;28;20112;-78
2021/09/29 17:39:58;;;;;;;20.80;9.77;;;23.20;99.90;;;;;;5013023;28;20041;-78
2021/09/29 17:53:21;;;;;;;17.65;8.43;;;23.10;99.90;;;;;;5012867;28;20104;-77
2021/09/29 17:55:48;;;;;;;15.55;7.72;;;23.10;99.90;;;;;;5013271;28;20384;-77
2021/09/29 17:58:15;;;;;;;11.73;7.55;;;23.00;99.90;;;;;;4995149;28;20044;-79
2021/09/29 18:00:44;;;;;;;16.98;7.63;;;23.00;99.90;;;;;;5012715;28;20053;-80
2021/09/29 18:03:32;;;;;;;15.20;8.20;;;23.00;99.90;;;;;;5012634;28;20026;-79
2021/09/29 18:08:33;;;;;;;13.38;7.50;;;22.90;99.90;;;;;;5013084;28;20496;-78
2021/09/29 18:10:59;;;;;;;14.27;7.20;;;22.90;99.90;;;;;;4999150;28;20484;-77
2021/09/29 18:13:25;;;;;;;12.07;8.20;;;22.90;99.90;;;;;;5016414;28;20079;-76
2021/09/29 18:15:51;;;;;;;15.90;7.55;;;22.80;99.90;;;;;;5017002;28;20033;-78
2021/09/29 18:18:19;;;;;;;18.25;8.32;;;22.80;99.90;;;;;;5016876;28;20038;-77
2021/09/29 18:20:45;;;;;;;14.80;7.93;;;22.80;99.90;;;;;;5016876;28;20045;-78
2021/09/29 18:23:10;;;;;;;16.73;7.63;;;22.80;99.90;;;;;;5016477;28;20037;-79
2021/09/29 18:25:39;;;;;;;17.10;8.05;;;22.80;99.90;;;;;;5016551;28;20369;-79
2021/09/29 18:28:06;;;;;;;24.05;9.25;;;22.80;99.90;;;;;;5016414;28;20041;-78
2021/09/29 18:30:32;;;;;;;18.67;9.60;;;22.80;99.90;;;;;;4998871;28;20037;-77
2021/09/29 18:33:03;;;;;;;15.02;8.75;;;22.70;99.90;;;;;;5016342;28;20077;-79
2021/09/29 18:35:33;;;;;;;13.75;8.45;;;22.60;99.90;;;;;;5016575;28;20069;-77
2021/09/29 18:38:03;;;;;;;22.75;8.88;;;22.60;99.90;;;;;;5016243;28;20038;-78
2021/09/29 18:40:29;;;;;;;20.33;8.60;;;22.50;99.90;;;;;;4998899;28;20034;-77
2021/09/29 18:42:55;;;;;;;13.77;7.97;;;22.50;99.90;;;;;;5016470;28;20040;-78
2021/09/29 18:45:21;;;;;;;23.08;8.48;;;22.40;99.90;;;;;;5015907;28;20073;-78
2021/09/29 18:47:47;;;;;;;13.80;8.02;;;22.40;99.90;;;;;;5016209;28;20036;-79
2021/09/29 18:50:13;;;;;;;14.90;8.43;;;22.40;99.90;;;;;;5016149;28;20064;-79
2021/09/29 18:52:40;;;;;;;18.85;8.60;;;22.40;99.90;;;;;;5015782;28;20044;-79
2021/09/29 18:55:22;;;;;;;17.08;7.78;;;22.40;99.90;;;;;;5015872;28;20045;-79
2021/09/29 19:08:48;;;;;;;24.25;8.32;;;22.40;99.90;;;;;;5016385;28;20037;-79
2021/09/29 19:11:14;;;;;;;17.20;7.75;;;22.30;99.90;;;;;;4998012;28;20048;-77
2021/09/29 19:13:41;;;;;;;13.43;8.52;;;22.20;99.90;;;;;;5015321;28;20046;-81
2021/09/29 19:16:07;;;;;;;18.30;8.23;;;22.20;99.90;;;;;;5015890;28;20034;-79
2021/09/29 19:18:34;;;;;;;16.33;8.75;;;22.10;99.90;;;;;;4997608;28;20033;-80
2021/09/29 19:21:04;;;;;;;20.73;9.05;;;22.10;99.90;;;;;;5013318;28;20036;-78
2021/09/29 19:23:32;;;;;;;14.48;8.48;;;22.10;99.90;;;;;;5014163;28;20393;-80
2021/09/29 19:25:58;;;;;;;16.02;8.68;;;22.00;99.90;;;;;;5014315;28;20092;-77
2021/09/29 19:28:38;;;;;;;21.67;8.82;;;22.00;99.90;;;;;;5014014;28;20034;-79
2021/09/29 19:31:21;;;;;;;14.43;8.57;;;22.00;99.90;;;;;;5013924;28;20480;-85
2021/09/29 19:33:53;;;;;;;15.25;8.15;;;22.00;99.90;;;;;;4997078;28;20049;-79
2021/09/29 19:36:21;;;;;;;19.45;9.15;;;22.00;99.90;;;;;;5014891;28;20065;-80
2021/09/29 19:38:48;;;;;;;11.05;8.13;;;21.90;99.90;;;;;;5014259;28;20041;-84
2021/09/29 19:41:17;;;;;;;23.80;8.82;;;21.80;99.90;;;;;;5014206;28;20034;-79
2021/09/29 19:43:46;;;;;;;18.08;8.25;;;21.70;99.90;;;;;;5014363;28;20077;-79
2021/09/29 19:47:01;;;;;;;15.25;9.50;;;21.70;99.90;;;;;;4980572;28;20061;-77
2021/09/29 20:07:25;;;;;;;12.93;8.90;;;21.50;99.90;;;;;;5015871;28;20495;-80
2021/09/29 20:08:28;;;;;;;15.57;7.15;;;21.50;99.90;;;;;;4999816;28;20105;-80
2021/09/29 20:10:59;;;;;;;13.05;8.32;;;21.50;99.90;;;;;;4996951;28;20504;-76
2021/09/29 20:13:26;;;;;;;11.00;7.15;;;21.50;99.90;;;;;;5014303;28;20519;-77
2021/09/29 20:15:52;;;;;;;10.80;7.97;;;21.50;99.90;;;;;;5014009;28;20457;-76
2021/09/29 20:18:21;;;;;;;15.43;7.53;;;21.50;99.90;;;;;;4995716;28;20041;-81
2021/09/29 20:20:49;;;;;;;14.10;7.57;;;21.50;99.90;;;;;;5013640;28;20080;-76
2021/09/29 20:23:18;;;;;;;14.40;8.32;;;21.50;99.90;;;;;;5013213;28;20037;-77
2021/09/29 20:25:45;;;;;;;12.73;7.50;;;21.60;99.90;;;;;;5013906;28;20377;-76
2021/09/29 20:28:11;;;;;;;17.80;7.88;;;21.70;99.90;;;;;;5013977;28;20095;-84